Flight Track Log - Related Links

Times and Time Zones

All times are in EDT time to prevent confusion due to time zone crossing. See the LOF3402 flight status page for this flight to view local times or setup timezone preferences in your user account.

Time Position Orientation Groundspeed Altitude Reporting Facility
EDT Latitude Longitude Course Direction KTS MPH feet Rate Location/Type
Sat 08:46:32 AM 41.8288 -87.8122 256° West  Level FlightAware Approximate
Sat 08:47:32 AM 41.7304 -87.7483 305° West  Level FlightAware Approximate
Sat 08:48:07 AM 41.8119 -87.9042 147° Southeast 224 258 6,100  Level Chicago Center
Sat 08:51:07 AM 41.5989 -87.7172 149° Southeast 313 360 23,000 2,050 Climbing Chicago Center
Sat 08:52:07 AM 41.5167 -87.6500 149° Southeast 335 386 14,300 -3,600 Descending Chicago Center
Sat 08:53:07 AM 41.4278 -87.5775 155° Southeast 354 407 15,800 1,500 Climbing Chicago Center
Sat 08:54:07 AM 41.3289 -87.5167 154° Southeast 375 432 17,300 1,450 Climbing Chicago Center
Sat 08:55:07 AM 41.2300 -87.4531 156° South 386 444 18,700 1,450 Climbing Chicago Center
Sat 08:56:07 AM 41.1289 -87.3928 156° South 392 451 20,200 1,500 Climbing Chicago Center
Sat 08:57:07 AM 41.0236 -87.3297 155° Southeast 403 464 21,700 1,400 Climbing Chicago Center
Sat 08:58:07 AM 40.9161 -87.2644 156° South 409 471 23,000 650 Climbing Chicago Center
Sat 08:59:07 AM 40.8064 -87.1992 156° South 420 483 23,000  Level Chicago Center
Sat 09:00:07 AM 40.6883 -87.1292 157° South 442 509 23,000  Level Chicago Center
Sat 09:01:07 AM 40.5639 -87.0594 156° South 442 509 23,000  Level Chicago Center
Sat 09:03:11 AM 40.3244 -86.9169 156° South 450 518 23,000  Level Indianapolis Center
Sat 09:04:11 AM 40.2094 -86.8489 155° Southeast 461 531 23,000  Level Indianapolis Center
Sat 09:05:11 AM 40.0906 -86.7781 147° Southeast 461 531 23,000  Level Indianapolis Center
Sat 09:06:11 AM 39.9844 -86.6892 125° Southeast 461 531 23,000  Level Indianapolis Center
Sat 09:07:11 AM 39.9108 -86.5533 124° Southeast 449 517 23,000 -600 Level Indianapolis Center
Sat 09:08:11 AM 39.8414 -86.4178 122° Southeast 458 527 21,800 -1,400 Descending Indianapolis Center
Sat 09:09:11 AM 39.7758 -86.2800 98° East 452 520 20,200 -2,194 Descending Indianapolis Center
Sat 09:09:44 AM 39.7667 -86.2000 117° Southeast 433 498 18,400 -2,783 Descending Indianapolis TRACON
Sat 09:10:20 AM 39.7333 -86.1167 115° Southeast 417 480 17,000 -2,138 Descending Indianapolis TRACON
Sat 09:11:11 AM 39.6903 -85.9989 114° Southeast 416 479 15,300 -1,892 Descending Indianapolis Center
Sat 09:12:11 AM 39.6469 -85.8706 113° Southeast 401 461 13,500 -1,700 Descending Indianapolis Center
Sat 09:13:11 AM 39.6056 -85.7425 114° Southeast 388 447 11,900 -1,250 Descending Indianapolis Center
Sat 09:14:11 AM 39.5619 -85.6147 114° Southeast 383 441 11,000 -450 Descending Indianapolis Center
Sat 09:15:11 AM 39.5181 -85.4894 125° Southeast 383 441 11,000  Level Indianapolis Center
Sat 09:16:11 AM 39.4575 -85.3778 125° Southeast 388 447 11,000  Level Indianapolis Center
Sat 09:17:11 AM 39.3964 -85.2658 126° Southeast 388 447 11,000  Level Indianapolis Center
Sat 09:18:11 AM 39.3417 -85.1681 125° Southeast 388 447 11,000  Level Indianapolis Center
Sat 09:19:11 AM 39.2806 -85.0567 125° Southeast 388 447 11,000  Level Indianapolis Center
Sat 09:20:11 AM 39.2194 -84.9453 125° Southeast 388 447 11,000 -350 Level Indianapolis Center
Sat 09:21:11 AM 39.1642 -84.8425 150° Southeast 373 429 10,300 -1,172 Descending Indianapolis Center
Sat 09:22:19 AM 39.0833 -84.7833 180° South 297 342 8,500 -1,746 Descending Cincinnati TRACON
Sat 09:23:25 AM 38.9833 -84.7833 180° South 286 329 6,400 -1,857 Descending Cincinnati TRACON
Sat 09:24:25 AM 38.9167 -84.7833 171° South 277 319 4,600 -1,650 Descending Cincinnati TRACON
Sat 09:25:25 AM 38.8333 -84.7667 108° East 274 315 3,100 -842 Descending Cincinnati TRACON
Sat 09:26:19 AM 38.8167 -84.7000 49° Northeast 236 272 3,000 -50 Descending Cincinnati TRACON
Sat 09:27:25 AM 38.8500 -84.6500 360° North 205 236 3,000  Level Cincinnati TRACON
Sat 09:28:19 AM 38.9000 -84.6500 360° North 196 226 3,000 -211 Level Cincinnati TRACON
Sat 09:29:19 AM 38.9333 -84.6500 360° North 134 154 2,600 -400 Descending Cincinnati TRACON

Login

Don't have an account? Register now (free) for customized features, flight alerts, and more!